St Helen — SVCC4 — position and weather

sailwx.info

Track history (hours):
 
Tides and Currents Weather Stations Pressure Air Temp Water Temp Dewpoint Dewpoint Depression Visibility Wind Speed Wind Dir Waves Ship Positions

St Helen

Last reported at 2017-Oct-10 22:41 UTC. Time now 2017-Oct-18 18:45 UTC.
Position N 25°23' W 079°35'.

Length 243 m; draft 7.8 m.

Type: Tanker. MMSI: 241357000.

Date/timePositionNaut miles runAvg speedWind from/ knotsBaromVisibWave heightAir tempDewpointWater temp
2017-Oct-10 22:41N 25°23' W 079°35'211.2
2017-Oct-10 22:30N 25°25' W 079°34'611.2
2017-Oct-10 21:58N 25°31' W 079°34'511.2
2017-Oct-10 21:29N 25°37' W 079°33'511.2
2017-Oct-10 21:00N 25°42' W 079°33'611.3
2017-Oct-10 20:30N 25°48' W 079°32'611.2
2017-Oct-10 20:00N 25°53' W 079°31'611.3
2017-Oct-10 19:30N 25°59' W 079°31'611.3
2017-Oct-10 19:00N 26°04' W 079°30'510.6
2017-Oct-10 18:30N 26°09' W 079°27'  
2017-Oct-06 19:32N 26°23' W 078°59'0 0.8
2017-Oct-06 19:13N 26°23' W 078°60'1 0.7
2017-Oct-06 18:25N 26°24' W 078°60'  
Track history (hours):
 
Tides and Currents Weather Stations Pressure Air Temp Water Temp Dewpoint Dewpoint Depression Visibility Wind Speed Wind Dir Waves Ship Positions

St Helen

Last reported at 2017-Oct-10 22:41 UTC. Time now 2017-Oct-18 18:45 UTC.
Position N 25°23' W 079°35'.

Length 243 m; draft 7.8 m.

Type: Tanker. MMSI: 241357000.

Date/timePositionNaut miles runAvg speedWind from/ knotsBaromVisibWave heightAir tempDewpointWater temp
2017-Oct-10 22:41N 25°23' W 079°35'211.2
2017-Oct-10 22:30N 25°25' W 079°34'611.2
2017-Oct-10 21:58N 25°31' W 079°34'511.2
2017-Oct-10 21:29N 25°37' W 079°33'511.2
2017-Oct-10 21:00N 25°42' W 079°33'611.3
2017-Oct-10 20:30N 25°48' W 079°32'611.2
2017-Oct-10 20:00N 25°53' W 079°31'611.3
2017-Oct-10 19:30N 25°59' W 079°31'611.3
2017-Oct-10 19:00N 26°04' W 079°30'510.6
2017-Oct-10 18:30N 26°09' W 079°27'  
2017-Oct-06 19:32N 26°23' W 078°59'0 0.8
2017-Oct-06 19:13N 26°23' W 078°60'1 0.7
2017-Oct-06 18:25N 26°24' W 078°60'  

Dump ship's entire track history